Time;durP1;ratioP1;P1;durP2;ratioP2;P2;SDS_P1;SDS_P2;PMS_P1;PMS_P2;Temp;Humidity;BMP_temperature;BMP_pressure;BME280_temperature;BME280_humidity;BME280_pressure;Samples;Min_cycle;Max_cycle;Signal;HPM_P1;HPM_P2
2022/01/06 00:00:33;;;;;;;10.00;5.55;;;;;;;;;;10437330;27;20063;-60
2022/01/06 00:05:31;;;;;;;15.50;10.23;;;;;;;;;;10440720;27;20063;-59
2022/01/06 00:10:31;;;;;;;8.48;5.55;;;;;;;;;;10440160;27;20047;-60
2022/01/06 00:15:35;;;;;;;6.85;5.80;;;;;;;;;;10440806;27;20071;-59
2022/01/06 00:25:51;;;;;;;6.80;5.47;;;;;;;;;;10440223;27;20075;-59
2022/01/06 00:30:49;;;;;;;8.57;5.80;;;;;;;;;;10439000;27;20069;-59
2022/01/06 00:35:49;;;;;;;23.67;14.90;;;;;;;;;;10438523;27;20074;-59
2022/01/06 00:40:48;;;;;;;6.28;5.25;;;;;;;;;;10438501;27;20535;-59
2022/01/06 00:45:46;;;;;;;6.65;5.53;;;;;;;;;;10437017;27;20074;-59
2022/01/06 00:50:45;;;;;;;7.65;5.53;;;;;;;;;;10436744;27;20077;-59
2022/01/06 00:55:44;;;;;;;7.05;5.72;;;;;;;;;;10437393;27;20066;-60
2022/01/06 01:00:43;;;;;;;5.47;4.97;;;;;;;;;;10436858;27;20078;-60
2022/01/06 01:05:42;;;;;;;72.10;38.97;;;;;;;;;;10437318;27;20059;-60
2022/01/06 01:10:40;;;;;;;8.68;6.90;;;;;;;;;;10436764;27;20063;-59
2022/01/06 01:15:45;;;;;;;7.40;6.47;;;;;;;;;;10436927;27;20069;-60
2022/01/06 01:20:44;;;;;;;8.18;6.18;;;;;;;;;;10436501;27;20093;-60
2022/01/06 01:25:42;;;;;;;9.98;5.53;;;;;;;;;;10436384;27;20069;-60
2022/01/06 01:30:54;;;;;;;8.80;7.72;;;;;;;;;;10436646;27;20058;-60
2022/01/06 01:35:52;;;;;;;8.40;6.75;;;;;;;;;;10435141;27;20070;-60
2022/01/06 01:40:50;;;;;;;7.30;5.10;;;;;;;;;;10435070;27;20095;-60
2022/01/06 01:45:56;;;;;;;6.68;5.32;;;;;;;;;;10435563;27;20070;-60
2022/01/06 01:50:55;;;;;;;7.30;6.60;;;;;;;;;;10435577;27;20097;-60
2022/01/06 01:55:53;;;;;;;6.18;5.57;;;;;;;;;;10434060;27;20093;-60
2022/01/06 02:00:53;;;;;;;10.55;9.13;;;;;;;;;;10434996;27;20102;-61
2022/01/06 02:05:52;;;;;;;8.32;5.65;;;;;;;;;;10413629;27;20077;-58
2022/01/06 02:10:50;;;;;;;6.78;4.95;;;;;;;;;;10433874;27;20066;-59
2022/01/06 02:15:48;;;;;;;6.45;5.07;;;;;;;;;;10433153;27;20075;-60
2022/01/06 02:20:48;;;;;;;7.10;6.03;;;;;;;;;;10432447;27;20074;-60
2022/01/06 02:25:46;;;;;;;5.88;4.93;;;;;;;;;;10433847;27;20137;-59
2022/01/06 02:30:48;;;;;;;6.07;5.45;;;;;;;;;;10432550;27;20073;-59
2022/01/06 02:35:48;;;;;;;6.13;5.20;;;;;;;;;;10432226;27;20501;-60
2022/01/06 02:40:47;;;;;;;6.65;4.97;;;;;;;;;;10434483;27;20066;-59
2022/01/06 02:45:46;;;;;;;7.43;4.97;;;;;;;;;;10433467;27;20473;-60
2022/01/06 02:50:46;;;;;;;5.28;4.60;;;;;;;;;;10433070;27;20059;-59
2022/01/06 02:55:50;;;;;;;7.63;5.85;;;;;;;;;;10432724;27;20519;-59
2022/01/06 03:01:08;;;;;;;50.00;24.55;;;;;;;;;;10433521;27;20554;-59
2022/01/06 03:06:07;;;;;;;6.28;4.93;;;;;;;;;;10433642;28;20067;-59
2022/01/06 03:11:08;;;;;;;5.85;4.78;;;;;;;;;;10432303;28;20093;-59
2022/01/06 03:16:06;;;;;;;6.18;5.40;;;;;;;;;;10431839;28;20070;-59
2022/01/06 03:21:04;;;;;;;7.63;5.85;;;;;;;;;;10431672;28;20479;-60
2022/01/06 03:26:03;;;;;;;5.50;4.90;;;;;;;;;;10434378;28;20066;-60
2022/01/06 03:31:02;;;;;;;8.48;6.43;;;;;;;;;;10434222;27;20070;-61
2022/01/06 03:36:01;;;;;;;5.93;5.00;;;;;;;;;;10441924;27;20469;-60
2022/01/06 03:40:59;;;;;;;6.20;5.60;;;;;;;;;;10438728;27;20105;-60
2022/01/06 03:45:57;;;;;;;6.50;5.60;;;;;;;;;;10440184;27;20050;-59
2022/01/06 03:50:57;;;;;;;5.38;4.50;;;;;;;;;;10440087;27;20079;-58
2022/01/06 03:55:55;;;;;;;5.85;4.93;;;;;;;;;;10439434;27;20071;-59
2022/01/06 04:00:53;;;;;;;7.80;5.88;;;;;;;;;;10439363;27;20075;-59
2022/01/06 04:05:52;;;;;;;5.97;4.53;;;;;;;;;;10439671;27;20074;-60
2022/01/06 04:10:52;;;;;;;5.75;5.13;;;;;;;;;;10439279;27;20531;-59
2022/01/06 04:15:50;;;;;;;8.05;7.15;;;;;;;;;;10439379;27;20070;-59
2022/01/06 04:20:48;;;;;;;7.70;5.00;;;;;;;;;;10421366;27;20047;-61
2022/01/06 04:25:47;;;;;;;6.38;4.63;;;;;;;;;;10439991;27;20059;-60
2022/01/06 04:30:46;;;;;;;49.95;29.90;;;;;;;;;;10438667;27;20065;-59
2022/01/06 04:35:44;;;;;;;6.45;5.05;;;;;;;;;;10420587;27;20067;-59
2022/01/06 04:40:43;;;;;;;7.18;5.00;;;;;;;;;;10438465;27;20074;-59
2022/01/06 04:45:41;;;;;;;5.38;4.88;;;;;;;;;;10437888;27;20062;-60
2022/01/06 04:50:41;;;;;;;13.88;5.20;;;;;;;;;;10437865;27;20058;-60
2022/01/06 04:55:39;;;;;;;12.57;7.28;;;;;;;;;;10436435;27;20143;-59
2022/01/06 05:00:37;;;;;;;7.38;6.20;;;;;;;;;;10435642;27;20073;-59
2022/01/06 05:05:35;;;;;;;6.63;5.47;;;;;;;;;;10433921;27;20205;-60
2022/01/06 05:10:35;;;;;;;10.30;6.95;;;;;;;;;;10435038;27;20066;-59
2022/01/06 05:15:33;;;;;;;7.55;6.25;;;;;;;;;;10433218;27;21168;-60
2022/01/06 05:20:32;;;;;;;9.70;6.45;;;;;;;;;;10433530;27;20076;-59
2022/01/06 05:25:31;;;;;;;8.35;5.55;;;;;;;;;;10431637;27;20090;-59
2022/01/06 05:30:31;;;;;;;6.35;5.30;;;;;;;;;;10429675;27;20178;-59
2022/01/06 05:35:30;;;;;;;16.48;12.57;;;;;;;;;;10427446;27;20089;-58
2022/01/06 05:40:28;;;;;;;7.10;5.22;;;;;;;;;;10427288;27;20063;-59
2022/01/06 05:45:28;;;;;;;6.70;5.95;;;;;;;;;;10433847;27;20531;-58
2022/01/06 05:50:27;;;;;;;7.35;5.53;;;;;;;;;;10434639;27;20059;-59
2022/01/06 05:55:26;;;;;;;6.10;5.50;;;;;;;;;;10430242;27;20089;-59
2022/01/06 06:00:24;;;;;;;6.43;4.57;;;;;;;;;;10430060;27;20550;-59
2022/01/06 06:05:22;;;;;;;6.25;4.90;;;;;;;;;;10430610;27;20066;-59
2022/01/06 06:10:22;;;;;;;5.82;4.68;;;;;;;;;;10428850;27;20074;-59
2022/01/06 06:15:20;;;;;;;7.60;5.32;;;;;;;;;;10428966;27;20079;-59
2022/01/06 06:20:19;;;;;;;5.28;4.25;;;;;;;;;;10429843;27;20445;-59
2022/01/06 06:25:17;;;;;;;10.85;7.70;;;;;;;;;;10423729;27;20145;-60
2022/01/06 06:30:17;;;;;;;6.90;5.43;;;;;;;;;;10428363;27;20063;-60
2022/01/06 06:35:19;;;;;;;7.28;6.32;;;;;;;;;;10432430;27;20066;-60
2022/01/06 06:40:19;;;;;;;7.95;5.53;;;;;;;;;;10434290;27;20067;-60
2022/01/06 06:45:19;;;;;;;5.70;5.10;;;;;;;;;;10433104;27;20070;-60
2022/01/06 06:50:17;;;;;;;5.25;4.70;;;;;;;;;;10433469;27;20172;-59
2022/01/06 06:55:16;;;;;;;6.85;5.53;;;;;;;;;;10432993;27;20070;-59
2022/01/06 07:00:15;;;;;;;5.18;4.30;;;;;;;;;;10412870;27;20070;-59
2022/01/06 07:05:15;;;;;;;9.27;6.15;;;;;;;;;;10433126;28;20125;-58
2022/01/06 07:10:14;;;;;;;8.98;8.18;;;;;;;;;;10440266;27;20113;-60
2022/01/06 07:15:13;;;;;;;8.00;5.80;;;;;;;;;;10441942;27;20082;-61
2022/01/06 07:20:12;;;;;;;10.48;6.00;;;;;;;;;;10444347;27;20090;-58
2022/01/06 07:25:12;;;;;;;31.80;19.85;;;;;;;;;;10442871;27;20066;-58
2022/01/06 07:30:11;;;;;;;6.10;5.13;;;;;;;;;;10441974;27;20067;-57
2022/01/06 07:35:09;;;;;;;8.38;4.90;;;;;;;;;;10440464;27;20083;-59
2022/01/06 07:40:09;;;;;;;6.00;5.05;;;;;;;;;;10439348;27;20488;-58
2022/01/06 07:45:09;;;;;;;6.97;5.60;;;;;;;;;;10435041;27;20079;-58
2022/01/06 07:50:07;;;;;;;11.50;8.18;;;;;;;;;;10438419;27;20071;-59
2022/01/06 07:55:06;;;;;;;6.70;5.30;;;;;;;;;;10440062;27;20094;-59
2022/01/06 08:00:05;;;;;;;7.05;6.35;;;;;;;;;;10442034;27;20085;-58
2022/01/06 08:05:12;;;;;;;24.73;17.70;;;;;;;;;;10440018;27;20117;-58
2022/01/06 08:10:11;;;;;;;8.85;6.03;;;;;;;;;;10435601;27;20512;-59
2022/01/06 08:15:10;;;;;;;10.07;8.23;;;;;;;;;;10438977;27;20087;-56
2022/01/06 08:20:10;;;;;;;27.75;22.33;;;;;;;;;;10441540;27;20534;-58
2022/01/06 08:25:10;;;;;;;36.40;25.90;;;;;;;;;;10441221;27;20055;-57
2022/01/06 08:30:09;;;;;;;38.70;26.33;;;;;;;;;;10440090;27;20462;-58
2022/01/06 08:35:07;;;;;;;9.15;6.75;;;;;;;;;;10437950;27;20078;-55
2022/01/06 08:40:08;;;;;;;6.95;5.45;;;;;;;;;;10435262;27;20066;-58
2022/01/06 08:45:07;;;;;;;7.18;4.82;;;;;;;;;;10434234;27;20114;-59
2022/01/06 08:50:06;;;;;;;7.63;6.80;;;;;;;;;;10433324;27;20070;-57
2022/01/06 08:55:05;;;;;;;7.93;5.40;;;;;;;;;;10435664;27;20083;-58
2022/01/06 09:00:07;;;;;;;7.40;6.20;;;;;;;;;;10435092;27;20062;-58
2022/01/06 09:05:06;;;;;;;5.60;5.03;;;;;;;;;;10438053;27;20353;-58
2022/01/06 09:10:05;;;;;;;9.70;5.55;;;;;;;;;;10437662;27;20071;-58
2022/01/06 09:15:06;;;;;;;5.00;4.32;;;;;;;;;;10437968;27;20466;-60
2022/01/06 09:20:05;;;;;;;6.85;5.68;;;;;;;;;;10438101;27;20078;-58
2022/01/06 09:25:09;;;;;;;6.85;4.88;;;;;;;;;;10433759;27;20059;-59
2022/01/06 09:30:10;;;;;;;4.97;4.47;;;;;;;;;;10432470;27;20074;-59
2022/01/06 09:35:08;;;;;;;12.43;8.63;;;;;;;;;;10432274;27;20063;-58
2022/01/06 09:40:09;;;;;;;10.30;7.10;;;;;;;;;;10435537;27;20712;-59
2022/01/06 09:45:09;;;;;;;8.23;5.53;;;;;;;;;;10434226;27;20095;-58
2022/01/06 09:50:09;;;;;;;12.18;9.23;;;;;;;;;;10436048;27;20073;-58
2022/01/06 09:55:08;;;;;;;8.73;6.03;;;;;;;;;;10432367;27;20093;-57
2022/01/06 10:00:14;;;;;;;9.40;7.68;;;;;;;;;;10412268;27;20085;-58
2022/01/06 10:05:12;;;;;;;15.73;8.55;;;;;;;;;;10432297;27;20085;-57
2022/01/06 10:10:12;;;;;;;7.82;6.53;;;;;;;;;;10436957;27;20081;-59
2022/01/06 10:15:18;;;;;;;13.82;8.27;;;;;;;;;;10434489;27;20535;-59
2022/01/06 10:20:17;;;;;;;19.13;15.25;;;;;;;;;;10429482;27;20082;-59
2022/01/06 10:25:16;;;;;;;15.27;11.20;;;;;;;;;;10433655;27;20075;-59
2022/01/06 10:30:16;;;;;;;10.70;7.95;;;;;;;;;;10432033;27;20045;-58
2022/01/06 10:35:20;;;;;;;15.95;11.55;;;;;;;;;;10431171;27;20082;-59
2022/01/06 10:40:22;;;;;;;17.67;10.18;;;;;;;;;;10435078;27;20078;-58
2022/01/06 10:45:24;;;;;;;15.05;9.63;;;;;;;;;;10432768;27;20058;-59
2022/01/06 10:50:24;;;;;;;10.75;7.22;;;;;;;;;;10426035;27;20082;-59
2022/01/06 10:55:25;;;;;;;9.05;6.75;;;;;;;;;;10424880;27;20500;-58
2022/01/06 11:00:24;;;;;;;14.13;7.93;;;;;;;;;;10426427;27;20059;-58
2022/01/06 11:05:24;;;;;;;11.32;6.85;;;;;;;;;;10431189;27;20063;-58
2022/01/06 11:10:23;;;;;;;14.95;10.00;;;;;;;;;;10432163;28;20500;-58
2022/01/06 11:15:21;;;;;;;16.13;10.65;;;;;;;;;;10432187;28;20081;-58
2022/01/06 11:20:25;;;;;;;18.35;12.57;;;;;;;;;;10430090;28;20111;-58
2022/01/06 11:25:31;;;;;;;97.80;59.55;;;;;;;;;;10429152;28;20081;-58
2022/01/06 11:30:39;;;;;;;21.42;11.63;;;;;;;;;;10430090;28;20070;-58
2022/01/06 11:35:54;;;;;;;10.13;6.30;;;;;;;;;;10429957;28;20070;-59
2022/01/06 11:41:07;;;;;;;21.77;14.90;;;;;;;;;;10430080;28;20550;-58
2022/01/06 11:46:05;;;;;;;17.58;9.57;;;;;;;;;;10429230;28;20058;-58
2022/01/06 11:51:06;;;;;;;14.13;10.57;;;;;;;;;;10432828;28;20070;-59
2022/01/06 11:56:14;;;;;;;10.93;7.72;;;;;;;;;;10436970;27;20070;-58
2022/01/06 12:01:15;;;;;;;17.80;11.80;;;;;;;;;;10441033;27;20187;-58
2022/01/06 12:06:22;;;;;;;15.68;11.20;;;;;;;;;;10439418;27;20078;-58
2022/01/06 12:11:25;;;;;;;14.32;9.38;;;;;;;;;;10439292;27;20481;-58
2022/01/06 12:16:25;;;;;;;11.60;8.82;;;;;;;;;;10436227;27;20503;-58
2022/01/06 12:21:24;;;;;;;15.50;12.25;;;;;;;;;;10437990;27;20074;-59
2022/01/06 12:26:22;;;;;;;33.47;20.50;;;;;;;;;;10440739;27;20449;-59
2022/01/06 12:31:23;;;;;;;243.48;117.18;;;;;;;;;;10440887;27;20063;-59
2022/01/06 12:36:22;;;;;;;81.95;40.47;;;;;;;;;;10440359;27;20055;-60
2022/01/06 12:41:26;;;;;;;51.80;23.77;;;;;;;;;;10437703;27;20446;-57
2022/01/06 12:46:30;;;;;;;21.42;13.55;;;;;;;;;;10431866;27;20107;-57
2022/01/06 12:51:30;;;;;;;23.90;16.00;;;;;;;;;;10435434;27;20058;-59
2022/01/06 12:56:30;;;;;;;65.78;35.00;;;;;;;;;;10433716;27;20055;-59
2022/01/06 13:01:30;;;;;;;24.73;13.18;;;;;;;;;;10435753;27;20059;-59
2022/01/06 13:06:30;;;;;;;26.35;17.00;;;;;;;;;;10436202;27;20074;-59
2022/01/06 13:11:29;;;;;;;41.60;23.50;;;;;;;;;;10437849;27;20503;-59
2022/01/06 13:16:28;;;;;;;115.75;51.70;;;;;;;;;;10437005;27;20535;-58
2022/01/06 13:21:31;;;;;;;122.30;55.38;;;;;;;;;;10434574;27;20067;-58
2022/01/06 13:26:32;;;;;;;169.75;96.90;;;;;;;;;;10435346;27;20066;-58
2022/01/06 13:31:31;;;;;;;196.60;120.13;;;;;;;;;;10433947;27;20067;-58
2022/01/06 13:36:33;;;;;;;103.47;60.28;;;;;;;;;;10435764;27;20473;-58
2022/01/06 13:41:32;;;;;;;103.82;57.28;;;;;;;;;;10436100;27;20059;-58
2022/01/06 13:46:40;;;;;;;105.50;61.47;;;;;;;;;;10436736;27;20636;-58
2022/01/06 13:51:43;;;;;;;84.07;54.97;;;;;;;;;;10436938;27;20074;-58
2022/01/06 13:56:42;;;;;;;87.97;51.13;;;;;;;;;;10398612;27;20093;-58
2022/01/06 14:01:43;;;;;;;163.25;96.13;;;;;;;;;;10431937;27;20063;-58
2022/01/06 14:06:43;;;;;;;114.72;69.03;;;;;;;;;;10435501;27;20070;-59
2022/01/06 14:11:41;;;;;;;71.40;41.85;;;;;;;;;;10432703;27;20524;-58
2022/01/06 14:16:40;;;;;;;59.42;33.72;;;;;;;;;;10431449;27;20062;-58
2022/01/06 14:21:38;;;;;;;47.10;27.58;;;;;;;;;;10433926;27;20058;-58
2022/01/06 14:26:38;;;;;;;44.90;25.33;;;;;;;;;;10433290;27;20580;-59
2022/01/06 14:31:36;;;;;;;45.15;25.65;;;;;;;;;;10432448;27;20074;-58
2022/01/06 14:36:34;;;;;;;42.70;26.30;;;;;;;;;;10431478;27;20067;-59
2022/01/06 14:41:32;;;;;;;32.50;24.92;;;;;;;;;;10430589;27;20066;-58
2022/01/06 14:46:32;;;;;;;72.70;46.58;;;;;;;;;;10432990;27;20061;-58
2022/01/06 14:51:33;;;;;;;65.55;38.10;;;;;;;;;;10432748;27;20078;-59
2022/01/06 14:56:31;;;;;;;45.05;28.95;;;;;;;;;;10433398;27;20059;-60
2022/01/06 15:01:29;;;;;;;26.52;19.40;;;;;;;;;;10432676;27;20538;-59
2022/01/06 15:06:29;;;;;;;45.78;25.50;;;;;;;;;;10433103;27;20465;-59
2022/01/06 15:11:27;;;;;;;62.00;38.50;;;;;;;;;;10432951;28;20067;-59
2022/01/06 15:16:25;;;;;;;41.95;28.60;;;;;;;;;;10433134;28;20066;-60
2022/01/06 15:21:24;;;;;;;46.10;29.17;;;;;;;;;;10433385;28;20092;-60
2022/01/06 15:26:25;;;;;;;47.80;32.17;;;;;;;;;;10430909;28;20483;-59
2022/01/06 15:31:23;;;;;;;37.00;24.90;;;;;;;;;;10437827;27;20449;-59
2022/01/06 15:36:22;;;;;;;36.72;27.40;;;;;;;;;;10440527;27;20066;-60
2022/01/06 15:41:20;;;;;;;35.95;27.90;;;;;;;;;;10441105;27;20063;-60
2022/01/06 15:46:20;;;;;;;41.17;29.25;;;;;;;;;;10441095;27;20480;-60
2022/01/06 15:51:19;;;;;;;66.38;42.60;;;;;;;;;;10441457;27;20059;-59
2022/01/06 15:56:18;;;;;;;68.40;42.30;;;;;;;;;;10441792;27;20073;-59
2022/01/06 16:01:23;;;;;;;95.72;57.47;;;;;;;;;;10441891;27;20082;-59
2022/01/06 16:06:43;;;;;;;53.05;34.80;;;;;;;;;;10440602;27;20540;-59
2022/01/06 16:11:41;;;;;;;30.48;22.80;;;;;;;;;;10439554;27;20043;-59
2022/01/06 16:16:39;;;;;;;33.75;26.63;;;;;;;;;;10441378;27;20069;-59
2022/01/06 16:21:38;;;;;;;90.10;57.25;;;;;;;;;;10440636;27;20066;-60
2022/01/06 16:26:37;;;;;;;65.15;43.22;;;;;;;;;;10440217;27;20062;-59
2022/01/06 16:31:40;;;;;;;49.50;32.78;;;;;;;;;;10440856;27;20463;-59
2022/01/06 16:36:39;;;;;;;55.80;35.78;;;;;;;;;;10438989;27;20078;-59
2022/01/06 16:41:39;;;;;;;38.13;30.38;;;;;;;;;;10437888;27;20071;-59
2022/01/06 16:46:37;;;;;;;30.13;23.35;;;;;;;;;;10419548;27;20479;-59
2022/01/06 16:51:35;;;;;;;48.33;35.40;;;;;;;;;;10438539;27;20074;-59
2022/01/06 16:56:34;;;;;;;37.17;27.58;;;;;;;;;;10437712;27;20361;-59
2022/01/06 17:01:33;;;;;;;28.58;21.60;;;;;;;;;;10437161;27;20070;-59
2022/01/06 17:06:33;;;;;;;25.30;18.67;;;;;;;;;;10437913;27;20068;-59
2022/01/06 17:11:32;;;;;;;27.40;19.73;;;;;;;;;;10439389;27;20071;-59
2022/01/06 17:16:30;;;;;;;32.13;22.35;;;;;;;;;;10439331;27;20059;-60
2022/01/06 17:21:30;;;;;;;53.65;31.08;;;;;;;;;;10437304;27;20074;-59
2022/01/06 17:26:28;;;;;;;40.55;26.42;;;;;;;;;;10417627;27;20063;-59
2022/01/06 17:31:27;;;;;;;47.20;32.95;;;;;;;;;;10435827;27;20483;-59
2022/01/06 17:36:27;;;;;;;28.17;20.45;;;;;;;;;;10436801;27;20055;-59
2022/01/06 17:41:27;;;;;;;24.83;16.92;;;;;;;;;;10436335;27;21412;-59
2022/01/06 17:46:33;;;;;;;32.28;22.95;;;;;;;;;;10436106;27;20066;-59
2022/01/06 17:51:32;;;;;;;59.88;39.55;;;;;;;;;;10434779;27;20059;-59
2022/01/06 17:56:31;;;;;;;43.15;29.15;;;;;;;;;;10436898;27;20138;-60
2022/01/06 18:01:30;;;;;;;28.17;20.42;;;;;;;;;;10436844;27;20067;-59
2022/01/06 18:06:31;;;;;;;40.55;26.08;;;;;;;;;;10434539;27;20074;-59
2022/01/06 18:11:30;;;;;;;37.25;23.73;;;;;;;;;;10434493;27;20471;-57
2022/01/06 18:16:29;;;;;;;34.42;21.45;;;;;;;;;;10435993;27;20031;-59
2022/01/06 18:21:28;;;;;;;40.03;25.50;;;;;;;;;;10435607;27;20157;-60
2022/01/06 18:26:26;;;;;;;26.88;19.02;;;;;;;;;;10433553;27;20185;-58
2022/01/06 18:31:25;;;;;;;16.05;11.50;;;;;;;;;;10434182;27;20069;-59
2022/01/06 18:36:25;;;;;;;23.33;12.50;;;;;;;;;;10433755;27;20078;-59
2022/01/06 18:41:23;;;;;;;10.73;8.10;;;;;;;;;;10431738;27;20075;-60
2022/01/06 18:46:22;;;;;;;17.80;11.52;;;;;;;;;;10433600;27;20063;-59
2022/01/06 18:51:22;;;;;;;17.55;12.65;;;;;;;;;;10433850;27;20031;-60
2022/01/06 18:56:22;;;;;;;8.63;7.32;;;;;;;;;;10433742;27;20089;-59
2022/01/06 19:01:21;;;;;;;11.15;9.45;;;;;;;;;;10432737;27;20063;-59
2022/01/06 19:06:19;;;;;;;11.93;8.30;;;;;;;;;;10432787;27;20106;-59
2022/01/06 19:11:17;;;;;;;12.93;8.30;;;;;;;;;;10432398;28;20111;-60
2022/01/06 19:16:17;;;;;;;14.65;8.88;;;;;;;;;;10432034;28;20066;-59
2022/01/06 19:21:16;;;;;;;14.73;9.95;;;;;;;;;;10432717;28;20094;-60
2022/01/06 19:26:15;;;;;;;13.05;9.10;;;;;;;;;;10433052;28;20538;-59
2022/01/06 19:31:13;;;;;;;9.75;7.40;;;;;;;;;;10429946;28;20066;-58
2022/01/06 19:36:13;;;;;;;10.10;6.45;;;;;;;;;;10431218;28;20059;-59
2022/01/06 19:41:11;;;;;;;14.85;8.93;;;;;;;;;;10429123;28;20567;-58
2022/01/06 19:46:10;;;;;;;10.25;7.60;;;;;;;;;;10424498;28;20085;-57
2022/01/06 19:51:08;;;;;;;21.90;11.98;;;;;;;;;;10366533;22;20076;-58
2022/01/06 19:56:08;;;;;;;14.13;9.82;;;;;;;;;;10350041;28;20505;-55
2022/01/06 20:01:08;;;;;;;9.48;6.70;;;;;;;;;;10341740;28;20064;-57
2022/01/06 20:06:07;;;;;;;11.90;6.78;;;;;;;;;;10344254;28;20074;-58
2022/01/06 20:11:05;;;;;;;9.25;6.63;;;;;;;;;;10320445;28;20072;-58
2022/01/06 20:16:06;;;;;;;22.42;14.98;;;;;;;;;;10350654;28;20476;-58
2022/01/06 20:21:04;;;;;;;18.52;10.02;;;;;;;;;;10323274;28;20071;-58
2022/01/06 20:26:03;;;;;;;32.40;14.98;;;;;;;;;;10358459;28;20508;-57
2022/01/06 20:31:01;;;;;;;14.02;7.43;;;;;;;;;;10349423;28;20067;-58
2022/01/06 20:36:10;;;;;;;12.65;8.18;;;;;;;;;;10353076;28;20078;-58
2022/01/06 20:41:08;;;;;;;10.48;7.38;;;;;;;;;;10352298;28;20083;-58
2022/01/06 20:46:11;;;;;;;13.38;9.10;;;;;;;;;;10352957;28;20064;-57
2022/01/06 20:51:17;;;;;;;12.68;8.98;;;;;;;;;;10352973;28;20060;-58
2022/01/06 20:56:16;;;;;;;12.80;7.45;;;;;;;;;;10355205;28;20063;-58
2022/01/06 21:01:14;;;;;;;19.77;10.60;;;;;;;;;;10354152;28;20078;-57
2022/01/06 21:06:19;;;;;;;15.18;7.75;;;;;;;;;;10354340;28;20477;-56
2022/01/06 21:11:18;;;;;;;11.25;7.28;;;;;;;;;;10355750;28;20459;-59
2022/01/06 21:16:16;;;;;;;19.33;11.55;;;;;;;;;;10356264;28;20441;-58
2022/01/06 21:21:15;;;;;;;9.30;6.78;;;;;;;;;;10355667;28;20076;-59
2022/01/06 21:26:15;;;;;;;7.82;5.85;;;;;;;;;;10354239;28;20465;-59
2022/01/06 21:31:13;;;;;;;7.22;5.85;;;;;;;;;;10351723;28;20416;-59
2022/01/06 21:36:11;;;;;;;7.05;6.00;;;;;;;;;;10346136;28;20138;-59
2022/01/06 21:41:10;;;;;;;10.85;8.10;;;;;;;;;;10352830;28;20082;-59
2022/01/06 21:46:09;;;;;;;11.18;7.82;;;;;;;;;;10350572;28;20064;-59
2022/01/06 21:51:08;;;;;;;16.90;11.95;;;;;;;;;;10345996;28;20095;-59
2022/01/06 21:56:06;;;;;;;13.75;9.35;;;;;;;;;;10351119;28;20106;-58
2022/01/06 22:01:05;;;;;;;11.32;8.05;;;;;;;;;;10344189;28;20469;-59
2022/01/06 22:06:04;;;;;;;7.38;6.57;;;;;;;;;;10343756;28;20055;-59
2022/01/06 22:11:03;;;;;;;8.13;6.68;;;;;;;;;;10340362;28;20078;-59
2022/01/06 22:16:01;;;;;;;8.93;7.45;;;;;;;;;;10339017;28;20158;-59
2022/01/06 22:21:00;;;;;;;11.13;8.43;;;;;;;;;;10341705;28;20522;-57
2022/01/06 22:25:59;;;;;;;9.45;7.10;;;;;;;;;;10344496;28;20064;-58
2022/01/06 22:30:58;;;;;;;9.25;5.95;;;;;;;;;;10348513;28;20072;-58
2022/01/06 22:35:56;;;;;;;12.93;7.45;;;;;;;;;;10352346;28;20075;-59
2022/01/06 22:40:54;;;;;;;8.85;6.38;;;;;;;;;;10351851;28;20527;-58
2022/01/06 22:45:54;;;;;;;9.13;6.55;;;;;;;;;;10351997;28;20036;-59
2022/01/06 22:50:54;;;;;;;8.88;7.13;;;;;;;;;;10351005;28;20083;-58
2022/01/06 22:55:52;;;;;;;13.50;8.27;;;;;;;;;;10352117;28;20075;-59
2022/01/06 23:00:50;;;;;;;9.57;8.15;;;;;;;;;;10350581;28;20087;-58
2022/01/06 23:05:50;;;;;;;10.13;7.32;;;;;;;;;;10350699;28;20071;-58
2022/01/06 23:10:49;;;;;;;9.43;6.30;;;;;;;;;;10351144;28;20473;-58
2022/01/06 23:15:47;;;;;;;7.75;6.63;;;;;;;;;;10351209;28;20074;-58
2022/01/06 23:20:45;;;;;;;9.55;7.45;;;;;;;;;;10349610;28;20079;-59
2022/01/06 23:25:45;;;;;;;9.48;6.78;;;;;;;;;;10350887;28;20067;-58
2022/01/06 23:30:43;;;;;;;7.35;6.57;;;;;;;;;;10350833;28;20527;-58
2022/01/06 23:35:42;;;;;;;7.78;6.20;;;;;;;;;;10349718;28;20075;-59
2022/01/06 23:40:40;;;;;;;7.22;5.93;;;;;;;;;;10347754;28;20445;-58
2022/01/06 23:45:40;;;;;;;7.95;5.40;;;;;;;;;;10349947;28;20103;-58
2022/01/06 23:50:38;;;;;;;7.10;6.22;;;;;;;;;;10354409;28;20476;-58
2022/01/06 23:55:37;;;;;;;7.18;6.47;;;;;;;;;;10359991;28;20496;-58
